sensor_id;sensor_type;location;lat;lon;timestamp;pressure;altitude;pressure_sealevel;temperature;humidity
77823;BME280;67013;49.730;17.292;2023-07-02T00:01:13;97412.38;;;17.91;57.92
77823;BME280;67013;49.730;17.292;2023-07-02T00:03:43;97415.99;;;17.89;57.96
77823;BME280;67013;49.730;17.292;2023-07-02T00:06:12;97413.40;;;17.87;57.98
77823;BME280;67013;49.730;17.292;2023-07-02T00:08:41;97418.63;;;17.85;58.08
77823;BME280;67013;49.730;17.292;2023-07-02T00:11:11;97425.34;;;17.85;58.06
77823;BME280;67013;49.730;17.292;2023-07-02T00:13:41;97427.91;;;17.83;58.03
77823;BME280;67013;49.730;17.292;2023-07-02T00:16:10;97428.64;;;17.80;58.23
77823;BME280;67013;49.730;17.292;2023-07-02T00:18:39;97425.27;;;17.75;58.33
77823;BME280;67013;49.730;17.292;2023-07-02T00:21:09;97424.95;;;17.69;58.46
77823;BME280;67013;49.730;17.292;2023-07-02T00:23:44;97426.42;;;17.63;58.66
77823;BME280;67013;49.730;17.292;2023-07-02T00:26:13;97427.24;;;17.62;58.69
77823;BME280;67013;49.730;17.292;2023-07-02T00:28:43;97425.20;;;17.61;58.80
77823;BME280;67013;49.730;17.292;2023-07-02T00:31:12;97427.05;;;17.62;58.81
77823;BME280;67013;49.730;17.292;2023-07-02T00:33:42;97428.80;;;17.64;58.84
77823;BME280;67013;49.730;17.292;2023-07-02T00:36:12;97429.71;;;17.66;58.75
77823;BME280;67013;49.730;17.292;2023-07-02T00:38:44;97433.32;;;17.66;58.76
77823;BME280;67013;49.730;17.292;2023-07-02T00:41:14;97430.29;;;17.65;58.74
77823;BME280;67013;49.730;17.292;2023-07-02T00:43:45;97433.50;;;17.63;58.75
77823;BME280;67013;49.730;17.292;2023-07-02T00:46:16;97431.77;;;17.61;58.89
77823;BME280;67013;49.730;17.292;2023-07-02T00:48:49;97434.57;;;17.61;58.97
77823;BME280;67013;49.730;17.292;2023-07-02T00:51:20;97434.15;;;17.60;58.84
77823;BME280;67013;49.730;17.292;2023-07-02T00:53:52;97434.89;;;17.58;58.91
77823;BME280;67013;49.730;17.292;2023-07-02T00:56:23;97438.13;;;17.56;59.07
77823;BME280;67013;49.730;17.292;2023-07-02T00:58:54;97440.09;;;17.54;59.01
77823;BME280;67013;49.730;17.292;2023-07-02T01:01:27;97439.04;;;17.53;59.02
77823;BME280;67013;49.730;17.292;2023-07-02T01:03:59;97435.56;;;17.51;59.21
77823;BME280;67013;49.730;17.292;2023-07-02T01:06:30;97434.69;;;17.48;59.16
77823;BME280;67013;49.730;17.292;2023-07-02T01:09:02;97436.49;;;17.45;59.15
77823;BME280;67013;49.730;17.292;2023-07-02T01:11:36;97429.79;;;17.42;59.35
77823;BME280;67013;49.730;17.292;2023-07-02T01:14:10;97431.14;;;17.38;59.44
77823;BME280;67013;49.730;17.292;2023-07-02T01:16:42;97426.77;;;17.33;59.49
77823;BME280;67013;49.730;17.292;2023-07-02T01:19:15;97433.82;;;17.28;59.62
77823;BME280;67013;49.730;17.292;2023-07-02T01:21:49;97431.95;;;17.26;59.86
77823;BME280;67013;49.730;17.292;2023-07-02T01:24:19;97432.24;;;17.27;59.79
77823;BME280;67013;49.730;17.292;2023-07-02T01:26:50;97428.67;;;17.29;59.84
77823;BME280;67013;49.730;17.292;2023-07-02T01:29:20;97427.95;;;17.31;59.86
77823;BME280;67013;49.730;17.292;2023-07-02T01:31:50;97428.24;;;17.29;59.80
77823;BME280;67013;49.730;17.292;2023-07-02T01:34:19;97422.45;;;17.30;59.70
77823;BME280;67013;49.730;17.292;2023-07-02T01:36:49;97417.66;;;17.30;59.86
77823;BME280;67013;49.730;17.292;2023-07-02T01:39:18;97422.96;;;17.31;60.00
77823;BME280;67013;49.730;17.292;2023-07-02T01:41:53;97426.45;;;17.33;59.90
77823;BME280;67013;49.730;17.292;2023-07-02T01:44:23;97426.80;;;17.35;59.90
77823;BME280;67013;49.730;17.292;2023-07-02T01:46:53;97428.61;;;17.34;59.87
77823;BME280;67013;49.730;17.292;2023-07-02T01:49:24;97430.81;;;17.35;59.91
77823;BME280;67013;49.730;17.292;2023-07-02T01:51:55;97426.34;;;17.34;59.86
77823;BME280;67013;49.730;17.292;2023-07-02T01:54:26;97424.77;;;17.32;59.80
77823;BME280;67013;49.730;17.292;2023-07-02T01:56:54;97426.20;;;17.29;59.79
77823;BME280;67013;49.730;17.292;2023-07-02T01:59:24;97432.32;;;17.25;59.96
77823;BME280;67013;49.730;17.292;2023-07-02T02:01:54;97431.05;;;17.20;60.11
77823;BME280;67013;49.730;17.292;2023-07-02T02:04:23;97429.04;;;17.17;60.17
77823;BME280;67013;49.730;17.292;2023-07-02T02:06:53;97431.16;;;17.12;60.29
77823;BME280;67013;49.730;17.292;2023-07-02T02:09:22;97429.86;;;17.07;60.26
77823;BME280;67013;49.730;17.292;2023-07-02T02:11:52;97429.92;;;17.03;60.41
77823;BME280;67013;49.730;17.292;2023-07-02T02:14:22;97434.39;;;17.06;60.60
77823;BME280;67013;49.730;17.292;2023-07-02T02:16:51;97431.48;;;17.09;60.67
77823;BME280;67013;49.730;17.292;2023-07-02T02:19:21;97429.95;;;17.13;60.57
77823;BME280;67013;49.730;17.292;2023-07-02T02:21:50;97429.80;;;17.18;60.56
77823;BME280;67013;49.730;17.292;2023-07-02T02:24:19;97431.43;;;17.22;60.59
77823;BME280;67013;49.730;17.292;2023-07-02T02:26:49;97433.90;;;17.24;60.49
77823;BME280;67013;49.730;17.292;2023-07-02T02:29:18;97432.64;;;17.26;60.46
77823;BME280;67013;49.730;17.292;2023-07-02T02:31:48;97432.17;;;17.27;60.47
77823;BME280;67013;49.730;17.292;2023-07-02T02:34:17;97433.34;;;17.26;60.34
77823;BME280;67013;49.730;17.292;2023-07-02T02:36:47;97433.48;;;17.25;60.49
77823;BME280;67013;49.730;17.292;2023-07-02T02:39:16;97433.44;;;17.24;60.44
77823;BME280;67013;49.730;17.292;2023-07-02T02:41:46;97433.19;;;17.23;60.53
77823;BME280;67013;49.730;17.292;2023-07-02T02:44:15;97429.46;;;17.23;60.49
77823;BME280;67013;49.730;17.292;2023-07-02T02:46:44;97425.84;;;17.23;60.46
77823;BME280;67013;49.730;17.292;2023-07-02T02:49:14;97428.94;;;17.23;60.65
77823;BME280;67013;49.730;17.292;2023-07-02T02:51:44;97428.50;;;17.24;60.74
77823;BME280;67013;49.730;17.292;2023-07-02T02:54:13;97424.27;;;17.26;60.74
77823;BME280;67013;49.730;17.292;2023-07-02T02:56:43;97422.55;;;17.29;60.77
77823;BME280;67013;49.730;17.292;2023-07-02T02:59:12;97420.85;;;17.31;60.71
77823;BME280;67013;49.730;17.292;2023-07-02T03:01:42;97422.74;;;17.35;60.69
77823;BME280;67013;49.730;17.292;2023-07-02T03:04:11;97419.76;;;17.36;60.56
77823;BME280;67013;49.730;17.292;2023-07-02T03:06:42;97424.20;;;17.38;60.55
77823;BME280;67013;49.730;17.292;2023-07-02T03:09:11;97425.37;;;17.42;60.44
77823;BME280;67013;49.730;17.292;2023-07-02T03:11:41;97426.88;;;17.47;60.47
77823;BME280;67013;49.730;17.292;2023-07-02T03:14:10;97425.50;;;17.53;60.26
77823;BME280;67013;49.730;17.292;2023-07-02T03:16:40;97429.41;;;17.59;60.28
77823;BME280;67013;49.730;17.292;2023-07-02T03:19:09;97429.70;;;17.62;60.14
77823;BME280;67013;49.730;17.292;2023-07-02T03:21:39;97431.88;;;17.67;60.04
77823;BME280;67013;49.730;17.292;2023-07-02T03:24:08;97438.46;;;17.70;59.93
77823;BME280;67013;49.730;17.292;2023-07-02T03:26:41;97439.86;;;17.73;59.87
77823;BME280;67013;49.730;17.292;2023-07-02T03:29:11;97441.40;;;17.74;59.70
77823;BME280;67013;49.730;17.292;2023-07-02T03:31:41;97441.23;;;17.75;59.88
77823;BME280;67013;49.730;17.292;2023-07-02T03:34:11;97441.29;;;17.76;59.76
77823;BME280;67013;49.730;17.292;2023-07-02T03:36:40;97438.31;;;17.78;59.77
77823;BME280;67013;49.730;17.292;2023-07-02T03:39:10;97444.09;;;17.79;59.83
77823;BME280;67013;49.730;17.292;2023-07-02T03:41:39;97447.41;;;17.82;59.90
77823;BME280;67013;49.730;17.292;2023-07-02T03:44:09;97448.44;;;17.86;59.88
77823;BME280;67013;49.730;17.292;2023-07-02T03:46:38;97446.59;;;17.89;59.89
77823;BME280;67013;49.730;17.292;2023-07-02T03:49:08;97444.75;;;17.93;59.85
77823;BME280;67013;49.730;17.292;2023-07-02T03:51:37;97449.70;;;17.97;59.83
77823;BME280;67013;49.730;17.292;2023-07-02T03:54:07;97450.92;;;18.00;59.76
77823;BME280;67013;49.730;17.292;2023-07-02T03:56:36;97451.23;;;18.02;59.71
77823;BME280;67013;49.730;17.292;2023-07-02T03:59:06;97456.20;;;18.05;59.62
77823;BME280;67013;49.730;17.292;2023-07-02T04:01:35;97452.59;;;18.07;59.67
77823;BME280;67013;49.730;17.292;2023-07-02T04:04:05;97452.91;;;18.07;59.61
77823;BME280;67013;49.730;17.292;2023-07-02T04:06:35;97457.08;;;18.06;59.67
77823;BME280;67013;49.730;17.292;2023-07-02T04:09:04;97457.55;;;18.08;59.72
77823;BME280;67013;49.730;17.292;2023-07-02T04:11:34;97453.08;;;18.10;59.81
77823;BME280;67013;49.730;17.292;2023-07-02T04:14:04;97463.63;;;18.16;59.81
77823;BME280;67013;49.730;17.292;2023-07-02T04:16:33;97458.54;;;18.23;59.96
77823;BME280;67013;49.730;17.292;2023-07-02T04:19:02;97460.70;;;18.33;59.95
77823;BME280;67013;49.730;17.292;2023-07-02T04:21:32;97460.40;;;18.45;59.82
77823;BME280;67013;49.730;17.292;2023-07-02T04:24:02;97469.33;;;18.55;59.70
77823;BME280;67013;49.730;17.292;2023-07-02T04:26:31;97469.69;;;18.66;59.53
77823;BME280;67013;49.730;17.292;2023-07-02T04:29:00;97472.23;;;18.75;59.33
77823;BME280;67013;49.730;17.292;2023-07-02T04:31:30;97469.17;;;18.84;59.14
77823;BME280;67013;49.730;17.292;2023-07-02T04:34:00;97467.63;;;18.91;58.77
77823;BME280;67013;49.730;17.292;2023-07-02T04:36:29;97470.67;;;18.96;58.55
77823;BME280;67013;49.730;17.292;2023-07-02T04:38:59;97472.68;;;19.03;58.50
77823;BME280;67013;49.730;17.292;2023-07-02T04:41:29;97477.93;;;19.11;58.58
77823;BME280;67013;49.730;17.292;2023-07-02T04:43:58;97480.86;;;19.17;58.35
77823;BME280;67013;49.730;17.292;2023-07-02T04:46:29;97487.45;;;19.23;58.30
77823;BME280;67013;49.730;17.292;2023-07-02T04:48:59;97487.56;;;19.31;58.28
77823;BME280;67013;49.730;17.292;2023-07-02T04:51:28;97490.13;;;19.39;58.23
77823;BME280;67013;49.730;17.292;2023-07-02T04:53:58;97490.77;;;19.49;58.12
77823;BME280;67013;49.730;17.292;2023-07-02T04:56:27;97491.52;;;19.57;57.96
77823;BME280;67013;49.730;17.292;2023-07-02T04:58:57;97490.09;;;19.66;57.85
77823;BME280;67013;49.730;17.292;2023-07-02T05:01:29;97492.70;;;19.78;57.78
77823;BME280;67013;49.730;17.292;2023-07-02T05:03:58;97492.84;;;19.89;57.54
77823;BME280;67013;49.730;17.292;2023-07-02T05:06:27;97500.34;;;19.98;57.51
77823;BME280;67013;49.730;17.292;2023-07-02T05:08:57;97501.76;;;20.05;57.44
77823;BME280;67013;49.730;17.292;2023-07-02T05:11:26;97504.08;;;20.15;57.23
77823;BME280;67013;49.730;17.292;2023-07-02T05:13:56;97503.30;;;20.28;56.93
77823;BME280;67013;49.730;17.292;2023-07-02T05:16:25;97501.70;;;20.45;56.86
77823;BME280;67013;49.730;17.292;2023-07-02T05:18:54;97503.72;;;20.53;56.65
77823;BME280;67013;49.730;17.292;2023-07-02T05:21:24;97503.14;;;20.57;56.54
77823;BME280;67013;49.730;17.292;2023-07-02T05:23:54;97512.38;;;20.62;56.38
77823;BME280;67013;49.730;17.292;2023-07-02T05:26:23;97520.30;;;20.67;56.23
77823;BME280;67013;49.730;17.292;2023-07-02T05:28:54;97522.56;;;20.70;56.17
77823;BME280;67013;49.730;17.292;2023-07-02T05:31:24;97523.97;;;20.72;56.04
77823;BME280;67013;49.730;17.292;2023-07-02T05:33:54;97527.61;;;20.74;55.92
77823;BME280;67013;49.730;17.292;2023-07-02T05:36:23;97529.50;;;20.76;55.92
77823;BME280;67013;49.730;17.292;2023-07-02T05:38:53;97530.73;;;20.76;55.84
77823;BME280;67013;49.730;17.292;2023-07-02T05:41:22;97530.77;;;20.77;55.77
77823;BME280;67013;49.730;17.292;2023-07-02T05:43:53;97535.05;;;20.77;55.68
77823;BME280;67013;49.730;17.292;2023-07-02T05:46:22;97539.52;;;20.75;55.48
77823;BME280;67013;49.730;17.292;2023-07-02T05:48:52;97544.69;;;20.73;55.55
77823;BME280;67013;49.730;17.292;2023-07-02T05:51:24;97543.73;;;20.71;55.52
77823;BME280;67013;49.730;17.292;2023-07-02T05:53:54;97546.31;;;20.67;55.56
77823;BME280;67013;49.730;17.292;2023-07-02T05:56:23;97549.52;;;20.63;55.82
77823;BME280;67013;49.730;17.292;2023-07-02T05:58:52;97549.77;;;20.60;56.14
77823;BME280;67013;49.730;17.292;2023-07-02T06:01:22;97547.88;;;20.60;56.23
77823;BME280;67013;49.730;17.292;2023-07-02T06:03:52;97543.44;;;20.63;56.47
77823;BME280;67013;49.730;17.292;2023-07-02T06:06:22;97544.27;;;20.70;56.20
77823;BME280;67013;49.730;17.292;2023-07-02T06:08:52;97542.38;;;20.76;56.24
77823;BME280;67013;49.730;17.292;2023-07-02T06:11:22;97548.60;;;20.88;56.20
77823;BME280;67013;49.730;17.292;2023-07-02T06:13:52;97551.86;;;20.99;55.87
77823;BME280;67013;49.730;17.292;2023-07-02T06:16:21;97553.36;;;21.07;55.82
77823;BME280;67013;49.730;17.292;2023-07-02T06:18:51;97553.55;;;21.20;55.58
77823;BME280;67013;49.730;17.292;2023-07-02T06:21:21;97556.36;;;21.28;55.18
77823;BME280;67013;49.730;17.292;2023-07-02T06:23:51;97557.42;;;21.36;55.19
77823;BME280;67013;49.730;17.292;2023-07-02T06:26:20;97559.69;;;21.46;55.01
77823;BME280;67013;49.730;17.292;2023-07-02T06:28:50;97558.27;;;21.56;54.64
77823;BME280;67013;49.730;17.292;2023-07-02T06:31:19;97560.19;;;21.67;54.55
77823;BME280;67013;49.730;17.292;2023-07-02T06:33:49;97563.77;;;21.78;54.39
77823;BME280;67013;49.730;17.292;2023-07-02T06:36:18;97565.59;;;21.86;54.10
77823;BME280;67013;49.730;17.292;2023-07-02T06:38:48;97570.11;;;21.92;53.91
77823;BME280;67013;49.730;17.292;2023-07-02T06:41:18;97568.85;;;21.96;54.02
77823;BME280;67013;49.730;17.292;2023-07-02T06:43:47;97574.46;;;21.99;54.03
77823;BME280;67013;49.730;17.292;2023-07-02T06:46:16;97571.81;;;21.99;53.68
77823;BME280;67013;49.730;17.292;2023-07-02T06:48:46;97575.25;;;21.97;53.71
77823;BME280;67013;49.730;17.292;2023-07-02T06:51:16;97575.98;;;21.96;53.82
77823;BME280;67013;49.730;17.292;2023-07-02T06:53:47;97568.80;;;21.96;53.70
77823;BME280;67013;49.730;17.292;2023-07-02T06:56:17;97571.02;;;21.95;53.66
77823;BME280;67013;49.730;17.292;2023-07-02T06:58:46;97574.02;;;21.98;53.65
77823;BME280;67013;49.730;17.292;2023-07-02T07:01:15;97577.40;;;22.01;53.68
77823;BME280;67013;49.730;17.292;2023-07-02T07:03:45;97577.08;;;22.02;53.69
77823;BME280;67013;49.730;17.292;2023-07-02T07:06:14;97581.02;;;22.03;53.81
77823;BME280;67013;49.730;17.292;2023-07-02T07:08:44;97584.40;;;22.05;53.69
77823;BME280;67013;49.730;17.292;2023-07-02T07:11:14;97578.65;;;22.08;53.68
77823;BME280;67013;49.730;17.292;2023-07-02T07:13:43;97580.68;;;22.13;53.86
77823;BME280;67013;49.730;17.292;2023-07-02T07:16:13;97582.44;;;22.25;53.88
77823;BME280;67013;49.730;17.292;2023-07-02T07:18:45;97583.21;;;22.38;53.81
77823;BME280;67013;49.730;17.292;2023-07-02T07:21:14;97579.64;;;22.53;53.61
77823;BME280;67013;49.730;17.292;2023-07-02T07:23:44;97578.92;;;22.73;53.54
77823;BME280;67013;49.730;17.292;2023-07-02T07:26:13;97580.63;;;22.97;53.36
77823;BME280;67013;49.730;17.292;2023-07-02T07:28:43;97587.86;;;23.15;53.50
77823;BME280;67013;49.730;17.292;2023-07-02T07:31:12;97588.95;;;23.31;53.55
77823;BME280;67013;49.730;17.292;2023-07-02T07:33:42;97591.19;;;23.42;53.55
77823;BME280;67013;49.730;17.292;2023-07-02T07:36:12;97591.94;;;23.53;53.44
77823;BME280;67013;49.730;17.292;2023-07-02T07:38:44;97595.77;;;23.62;53.25
77823;BME280;67013;49.730;17.292;2023-07-02T07:41:13;97597.80;;;23.66;53.11
77823;BME280;67013;49.730;17.292;2023-07-02T07:43:43;97599.07;;;23.68;52.86
77823;BME280;67013;49.730;17.292;2023-07-02T07:46:12;97600.20;;;23.71;53.02
77823;BME280;67013;49.730;17.292;2023-07-02T07:48:42;97600.06;;;23.73;52.92
77823;BME280;67013;49.730;17.292;2023-07-02T07:51:11;97600.27;;;23.73;52.90
77823;BME280;67013;49.730;17.292;2023-07-02T07:53:41;97599.17;;;23.71;52.89
77823;BME280;67013;49.730;17.292;2023-07-02T07:56:11;97599.42;;;23.71;53.39
77823;BME280;67013;49.730;17.292;2023-07-02T07:58:40;97601.52;;;23.69;53.29
77823;BME280;67013;49.730;17.292;2023-07-02T08:01:10;97603.09;;;23.67;53.25
77823;BME280;67013;49.730;17.292;2023-07-02T08:03:40;97606.55;;;23.63;53.16
77823;BME280;67013;49.730;17.292;2023-07-02T08:06:09;97609.15;;;23.60;53.34
77823;BME280;67013;49.730;17.292;2023-07-02T08:08:38;97603.96;;;23.62;53.49
77823;BME280;67013;49.730;17.292;2023-07-02T08:11:08;97599.02;;;23.76;53.53
77823;BME280;67013;49.730;17.292;2023-07-02T08:13:37;97592.04;;;24.09;53.84
77823;BME280;67013;49.730;17.292;2023-07-02T08:16:07;97589.08;;;24.52;53.40
77823;BME280;67013;49.730;17.292;2023-07-02T08:18:38;97590.99;;;24.90;52.05
77823;BME280;67013;49.730;17.292;2023-07-02T08:21:07;97594.81;;;25.25;51.56
77823;BME280;67013;49.730;17.292;2023-07-02T08:23:37;97595.74;;;25.53;50.62
77823;BME280;67013;49.730;17.292;2023-07-02T08:26:06;97596.31;;;25.84;49.94
77823;BME280;67013;49.730;17.292;2023-07-02T08:28:36;97596.98;;;26.26;49.12
77823;BME280;67013;49.730;17.292;2023-07-02T08:31:06;97597.96;;;26.60;48.55
77823;BME280;67013;49.730;17.292;2023-07-02T08:33:35;97597.81;;;26.78;48.01
77823;BME280;67013;49.730;17.292;2023-07-02T08:36:05;97592.96;;;26.88;47.41
77823;BME280;67013;49.730;17.292;2023-07-02T08:38:35;97595.32;;;26.96;46.93
77823;BME280;67013;49.730;17.292;2023-07-02T08:41:07;97598.04;;;27.04;46.66
77823;BME280;67013;49.730;17.292;2023-07-02T08:43:37;97599.39;;;27.09;46.52
77823;BME280;67013;49.730;17.292;2023-07-02T08:46:07;97596.86;;;27.08;45.98
77823;BME280;67013;49.730;17.292;2023-07-02T08:48:37;97598.13;;;27.06;46.07
77823;BME280;67013;49.730;17.292;2023-07-02T08:51:06;97599.50;;;26.99;46.12
77823;BME280;67013;49.730;17.292;2023-07-02T08:53:36;97596.73;;;26.97;46.12
77823;BME280;67013;49.730;17.292;2023-07-02T08:56:06;97591.80;;;26.92;45.88
77823;BME280;67013;49.730;17.292;2023-07-02T08:58:35;97596.23;;;26.93;45.84
77823;BME280;67013;49.730;17.292;2023-07-02T09:01:10;97598.38;;;27.02;45.50
77823;BME280;67013;49.730;17.292;2023-07-02T09:03:40;97605.16;;;27.24;45.47
77823;BME280;67013;49.730;17.292;2023-07-02T09:06:12;97604.73;;;27.55;45.30
77823;BME280;67013;49.730;17.292;2023-07-02T09:08:41;97603.20;;;27.84;44.60
77823;BME280;67013;49.730;17.292;2023-07-02T09:11:12;97602.23;;;27.99;43.94
77823;BME280;67013;49.730;17.292;2023-07-02T09:13:47;97600.08;;;28.08;43.71
77823;BME280;67013;49.730;17.292;2023-07-02T09:16:27;97595.83;;;28.08;43.44
77823;BME280;67013;49.730;17.292;2023-07-02T09:19:02;97593.54;;;28.06;43.64
77823;BME280;67013;49.730;17.292;2023-07-02T09:21:45;97593.20;;;28.08;43.52
77823;BME280;67013;49.730;17.292;2023-07-02T09:24:18;97592.80;;;28.15;42.77
77823;BME280;67013;49.730;17.292;2023-07-02T09:26:49;97596.51;;;28.21;42.67
77823;BME280;67013;49.730;17.292;2023-07-02T09:29:20;97593.80;;;28.26;42.60
77823;BME280;67013;49.730;17.292;2023-07-02T09:31:50;97594.08;;;28.30;42.57
77823;BME280;67013;49.730;17.292;2023-07-02T09:34:20;97597.28;;;28.52;42.54
77823;BME280;67013;49.730;17.292;2023-07-02T09:36:55;97587.15;;;28.85;42.61
77823;BME280;67013;49.730;17.292;2023-07-02T09:39:29;97587.65;;;29.10;41.64
77823;BME280;67013;49.730;17.292;2023-07-02T09:42:00;97590.11;;;29.21;40.92
77823;BME280;67013;49.730;17.292;2023-07-02T09:44:32;97588.80;;;29.25;40.47
77823;BME280;67013;49.730;17.292;2023-07-02T09:47:05;97590.76;;;29.31;40.29
77823;BME280;67013;49.730;17.292;2023-07-02T09:49:36;97587.38;;;29.32;40.31
77823;BME280;67013;49.730;17.292;2023-07-02T09:52:08;97581.17;;;29.29;40.02
77823;BME280;67013;49.730;17.292;2023-07-02T09:54:38;97576.27;;;29.36;40.00
77823;BME280;67013;49.730;17.292;2023-07-02T09:57:08;97574.41;;;29.33;40.01
77823;BME280;67013;49.730;17.292;2023-07-02T09:59:39;97568.09;;;29.39;40.00
77823;BME280;67013;49.730;17.292;2023-07-02T10:02:09;97569.94;;;29.49;40.18
77823;BME280;67013;49.730;17.292;2023-07-02T10:04:43;97566.27;;;29.53;39.87
77823;BME280;67013;49.730;17.292;2023-07-02T10:07:25;97568.10;;;29.52;39.63
77823;BME280;67013;49.730;17.292;2023-07-02T10:09:55;97568.85;;;29.54;39.85
77823;BME280;67013;49.730;17.292;2023-07-02T10:12:25;97571.64;;;29.63;40.00
77823;BME280;67013;49.730;17.292;2023-07-02T10:14:57;97569.11;;;29.78;39.74
77823;BME280;67013;49.730;17.292;2023-07-02T10:17:30;97564.66;;;29.87;39.11
77823;BME280;67013;49.730;17.292;2023-07-02T10:20:05;97559.52;;;29.93;38.77
77823;BME280;67013;49.730;17.292;2023-07-02T10:22:45;97562.73;;;29.92;38.78
77823;BME280;67013;49.730;17.292;2023-07-02T10:25:25;97560.67;;;29.86;39.06
77823;BME280;67013;49.730;17.292;2023-07-02T10:27:56;97557.98;;;29.77;38.79
77823;BME280;67013;49.730;17.292;2023-07-02T10:30:34;97561.54;;;29.78;38.80
77823;BME280;67013;49.730;17.292;2023-07-02T10:33:11;97557.25;;;29.80;38.81
77823;BME280;67013;49.730;17.292;2023-07-02T10:35:40;97561.08;;;29.80;38.78
77823;BME280;67013;49.730;17.292;2023-07-02T10:38:17;97557.83;;;29.78;38.55
77823;BME280;67013;49.730;17.292;2023-07-02T10:40:53;97552.04;;;29.75;38.63
77823;BME280;67013;49.730;17.292;2023-07-02T10:43:27;97547.52;;;29.75;38.48
77823;BME280;67013;49.730;17.292;2023-07-02T10:45:57;97553.48;;;29.71;38.40
77823;BME280;67013;49.730;17.292;2023-07-02T10:48:28;97552.98;;;29.67;38.67
77823;BME280;67013;49.730;17.292;2023-07-02T10:50:57;97555.26;;;29.64;38.43
77823;BME280;67013;49.730;17.292;2023-07-02T10:53:28;97553.73;;;29.58;38.00
77823;BME280;67013;49.730;17.292;2023-07-02T10:55:59;97555.71;;;29.46;37.45
77823;BME280;67013;49.730;17.292;2023-07-02T10:58:29;97562.91;;;29.30;37.32
77823;BME280;67013;49.730;17.292;2023-07-02T11:00:58;97559.98;;;29.17;37.50
77823;BME280;67013;49.730;17.292;2023-07-02T11:03:28;97563.25;;;29.08;37.93
77823;BME280;67013;49.730;17.292;2023-07-02T11:05:58;97564.59;;;29.07;37.96
77823;BME280;67013;49.730;17.292;2023-07-02T11:08:37;97564.75;;;29.09;38.07
77823;BME280;67013;49.730;17.292;2023-07-02T11:11:08;97560.03;;;29.17;37.54
77823;BME280;67013;49.730;17.292;2023-07-02T11:13:45;97555.16;;;29.24;37.17
77823;BME280;67013;49.730;17.292;2023-07-02T11:16:23;97558.83;;;29.29;37.16
77823;BME280;67013;49.730;17.292;2023-07-02T11:19:07;97564.20;;;29.30;36.71
77823;BME280;67013;49.730;17.292;2023-07-02T11:21:38;97563.57;;;29.30;36.28
77823;BME280;67013;49.730;17.292;2023-07-02T11:24:09;97562.23;;;29.31;35.89
77823;BME280;67013;49.730;17.292;2023-07-02T11:26:39;97565.15;;;29.32;36.02
77823;BME280;67013;49.730;17.292;2023-07-02T11:29:12;97558.73;;;29.38;35.88
77823;BME280;67013;49.730;17.292;2023-07-02T11:31:47;97560.81;;;29.45;36.05
77823;BME280;67013;49.730;17.292;2023-07-02T11:34:17;97567.12;;;29.52;36.14
77823;BME280;67013;49.730;17.292;2023-07-02T11:36:48;97571.93;;;29.56;36.13
77823;BME280;67013;49.730;17.292;2023-07-02T11:39:18;97571.92;;;29.55;35.68
77823;BME280;67013;49.730;17.292;2023-07-02T11:41:49;97569.16;;;29.51;35.55
77823;BME280;67013;49.730;17.292;2023-07-02T11:44:19;97569.05;;;29.51;35.61
77823;BME280;67013;49.730;17.292;2023-07-02T11:46:49;97569.23;;;29.49;35.14
77823;BME280;67013;49.730;17.292;2023-07-02T11:49:18;97569.35;;;29.41;34.25
77823;BME280;67013;49.730;17.292;2023-07-02T11:51:51;97567.98;;;29.27;34.51
77823;BME280;67013;49.730;17.292;2023-07-02T11:54:20;97574.98;;;29.15;35.17
77823;BME280;67013;49.730;17.292;2023-07-02T11:56:53;97575.67;;;29.05;35.51
77823;BME280;67013;49.730;17.292;2023-07-02T11:59:22;97571.02;;;28.99;36.00
77823;BME280;67013;49.730;17.292;2023-07-02T12:01:52;97574.36;;;29.00;36.27
77823;BME280;67013;49.730;17.292;2023-07-02T12:04:21;97572.77;;;29.04;36.59
77823;BME280;67013;49.730;17.292;2023-07-02T12:06:51;97569.21;;;29.13;37.01
77823;BME280;67013;49.730;17.292;2023-07-02T12:09:20;97570.75;;;29.29;36.73
77823;BME280;67013;49.730;17.292;2023-07-02T12:11:50;97570.84;;;29.40;36.45
77823;BME280;67013;49.730;17.292;2023-07-02T12:14:20;97575.80;;;29.44;35.85
77823;BME280;67013;49.730;17.292;2023-07-02T12:16:49;97573.48;;;29.44;35.82
77823;BME280;67013;49.730;17.292;2023-07-02T12:19:18;97571.62;;;29.46;35.60
77823;BME280;67013;49.730;17.292;2023-07-02T12:21:48;97568.14;;;29.46;35.68
77823;BME280;67013;49.730;17.292;2023-07-02T12:24:17;97566.75;;;29.43;35.50
77823;BME280;67013;49.730;17.292;2023-07-02T12:26:47;97565.34;;;29.42;35.65
77823;BME280;67013;49.730;17.292;2023-07-02T12:29:16;97564.76;;;29.43;35.98
77823;BME280;67013;49.730;17.292;2023-07-02T12:31:46;97562.16;;;29.50;36.02
77823;BME280;67013;49.730;17.292;2023-07-02T12:34:15;97560.32;;;29.60;35.92
77823;BME280;67013;49.730;17.292;2023-07-02T12:36:45;97559.05;;;29.68;35.83
77823;BME280;67013;49.730;17.292;2023-07-02T12:39:14;97556.54;;;29.78;35.94
77823;BME280;67013;49.730;17.292;2023-07-02T12:41:44;97553.55;;;29.83;35.17
77823;BME280;67013;49.730;17.292;2023-07-02T12:44:14;97560.61;;;29.85;34.62
77823;BME280;67013;49.730;17.292;2023-07-02T12:46:43;97561.17;;;29.88;34.68
77823;BME280;67013;49.730;17.292;2023-07-02T12:49:12;97561.95;;;29.94;34.59
77823;BME280;67013;49.730;17.292;2023-07-02T12:51:42;97550.41;;;30.01;34.18
77823;BME280;67013;49.730;17.292;2023-07-02T12:54:12;97554.13;;;30.07;33.58
77823;BME280;67013;49.730;17.292;2023-07-02T12:56:41;97553.05;;;30.13;32.72
77823;BME280;67013;49.730;17.292;2023-07-02T12:59:11;97552.50;;;30.20;32.72
77823;BME280;67013;49.730;17.292;2023-07-02T13:01:40;97549.45;;;30.30;32.88
77823;BME280;67013;49.730;17.292;2023-07-02T13:04:09;97557.13;;;30.40;32.81
77823;BME280;67013;49.730;17.292;2023-07-02T13:06:39;97556.73;;;30.47;32.62